createdAt,value
2022-12-05T00:00:09.500Z,5.47
2022-12-05T00:02:52.410Z,6.47
2022-12-05T00:05:41.098Z,6.90
2022-12-05T00:08:23.963Z,5.57
2022-12-05T00:11:13.120Z,4.85
2022-12-05T00:13:57.715Z,5.70
2022-12-05T00:19:24.149Z,7.35
2022-12-05T00:22:08.376Z,5.80
2022-12-05T00:24:51.291Z,5.47
2022-12-05T00:27:34.446Z,5.30
2022-12-05T00:30:17.516Z,4.90
2022-12-05T00:33:00.376Z,5.15
2022-12-05T00:35:43.254Z,5.47
2022-12-05T00:38:27.533Z,4.80
2022-12-05T00:41:12.740Z,5.32
2022-12-05T00:43:56.547Z,4.80
2022-12-05T00:46:39.577Z,5.07
2022-12-05T00:49:22.531Z,5.15
2022-12-05T00:52:05.511Z,4.70
2022-12-05T00:54:50.027Z,4.70
2022-12-05T00:57:33.413Z,4.55
2022-12-05T01:00:17.265Z,5.13
2022-12-05T01:03:00.156Z,4.78
2022-12-05T01:05:43.065Z,6.15
2022-12-05T01:08:26.895Z,5.10
2022-12-05T01:11:12.064Z,4.38
2022-12-05T01:13:56.057Z,9.55
2022-12-05T01:16:41.091Z,5.70
2022-12-05T01:19:26.017Z,4.60
2022-12-05T01:22:08.894Z,5.00
2022-12-05T01:24:51.767Z,4.75
2022-12-05T01:27:36.169Z,4.47
2022-12-05T01:30:20.303Z,4.82
2022-12-05T01:33:03.261Z,5.45
2022-12-05T01:35:46.300Z,5.32
2022-12-05T01:38:29.420Z,4.82
2022-12-05T01:41:14.874Z,4.97
2022-12-05T01:44:02.593Z,14.18
2022-12-05T01:46:47.564Z,5.75
2022-12-05T01:49:38.429Z,9.02
2022-12-05T01:52:25.954Z,6.57
2022-12-05T01:55:14.446Z,9.00
2022-12-05T01:57:58.443Z,5.22
2022-12-05T02:00:43.564Z,4.85
2022-12-05T02:03:26.435Z,10.25
2022-12-05T02:06:10.650Z,8.88
2022-12-05T02:08:53.867Z,13.52
2022-12-05T02:11:47.758Z,8.85
2022-12-05T02:14:39.461Z,6.70
2022-12-05T02:17:31.386Z,4.32
2022-12-05T02:20:27.386Z,4.53
2022-12-05T02:23:43.897Z,4.00
2022-12-05T02:26:57.295Z,4.00
2022-12-05T02:30:03.606Z,5.78
2022-12-05T02:32:54.812Z,4.10
2022-12-05T02:35:55.882Z,4.65
2022-12-05T02:38:46.464Z,3.53
2022-12-05T02:41:34.414Z,4.28
2022-12-05T02:44:22.564Z,4.72
2022-12-05T02:47:09.927Z,6.85
2022-12-05T02:49:53.892Z,8.02
2022-12-05T02:52:37.561Z,4.57
2022-12-05T02:55:21.840Z,3.58
2022-12-05T02:58:08.633Z,3.50
2022-12-05T03:00:55.243Z,3.80
2022-12-05T03:03:39.694Z,4.55
2022-12-05T03:06:26.545Z,3.40
2022-12-05T03:09:12.372Z,3.63
2022-12-05T03:12:00.073Z,3.38
2022-12-05T03:14:48.049Z,3.17
2022-12-05T03:17:36.912Z,3.53
2022-12-05T03:20:28.149Z,4.25
2022-12-05T03:23:17.155Z,3.38
2022-12-05T03:26:11.938Z,2.80
2022-12-05T03:29:01.401Z,3.47
2022-12-05T03:31:52.660Z,3.38
2022-12-05T03:34:47.954Z,4.15
2022-12-05T03:37:40.717Z,3.70
2022-12-05T03:40:30.738Z,3.47
2022-12-05T03:43:19.486Z,4.22
2022-12-05T03:46:06.872Z,5.55
2022-12-05T03:48:57.405Z,4.10
2022-12-05T03:51:44.130Z,3.63
2022-12-05T03:54:33.332Z,3.45
2022-12-05T03:57:20.676Z,5.88
2022-12-05T04:00:09.904Z,6.05
2022-12-05T04:03:00.857Z,7.68
2022-12-05T04:05:47.922Z,4.13
2022-12-05T04:08:34.598Z,3.70
2022-12-05T04:11:21.994Z,2.80
2022-12-05T04:14:09.886Z,3.03
2022-12-05T04:17:06.332Z,3.03
2022-12-05T04:20:11.350Z,2.88
2022-12-05T04:22:54.225Z,2.92
2022-12-05T04:25:41.318Z,3.55
2022-12-05T04:28:32.280Z,2.72
2022-12-05T04:31:19.123Z,3.13
2022-12-05T04:34:06.295Z,3.70
2022-12-05T04:36:56.711Z,4.82
2022-12-05T04:39:47.146Z,4.70
2022-12-05T04:42:33.678Z,6.40
2022-12-05T04:45:21.201Z,4.95
2022-12-05T04:48:09.521Z,4.00
2022-12-05T04:50:54.978Z,4.38
2022-12-05T04:53:38.092Z,5.57
2022-12-05T04:56:22.754Z,5.05
2022-12-05T04:59:05.970Z,5.20
2022-12-05T05:01:54.952Z,4.20
2022-12-05T05:04:42.056Z,4.45
2022-12-05T05:07:25.178Z,3.83
2022-12-05T05:10:09.790Z,4.78
2022-12-05T05:15:35.331Z,3.90
2022-12-05T05:18:19.647Z,3.58
2022-12-05T05:21:02.482Z,4.15
2022-12-05T05:23:45.436Z,6.07
2022-12-05T05:26:29.642Z,6.45
2022-12-05T05:29:13.615Z,5.40
2022-12-05T05:31:56.454Z,5.30
2022-12-05T05:34:40.872Z,5.22
2022-12-05T05:37:23.734Z,6.05
2022-12-05T05:40:11.131Z,6.32
2022-12-05T05:42:54.177Z,4.90
2022-12-05T05:45:37.941Z,4.80
2022-12-05T05:48:20.821Z,4.32
2022-12-05T05:51:06.834Z,4.45
2022-12-05T05:53:49.805Z,3.83
2022-12-05T05:56:32.640Z,4.32
2022-12-05T05:59:15.480Z,5.00
2022-12-05T06:01:58.552Z,4.15
2022-12-05T06:04:41.413Z,4.28
2022-12-05T06:07:25.672Z,3.42
2022-12-05T06:10:09.857Z,3.90
2022-12-05T06:12:52.684Z,3.90
2022-12-05T06:15:35.529Z,3.92
2022-12-05T06:18:18.419Z,3.75
2022-12-05T06:21:01.266Z,3.75
2022-12-05T06:23:45.767Z,3.97
2022-12-05T06:29:11.466Z,3.25
2022-12-05T06:31:54.309Z,3.25
2022-12-05T06:34:37.878Z,2.97
2022-12-05T06:37:20.720Z,3.53
2022-12-05T06:40:06.423Z,3.28
2022-12-05T06:42:49.290Z,4.20
2022-12-05T06:45:32.186Z,4.38
2022-12-05T06:48:15.060Z,4.65
2022-12-05T06:50:58.122Z,3.50
2022-12-05T06:53:41.709Z,4.57
2022-12-05T06:56:25.938Z,4.35
2022-12-05T06:59:08.761Z,3.05
2022-12-05T07:01:50.817Z,2.80
2022-12-05T07:04:33.750Z,3.15
2022-12-05T07:07:16.570Z,2.83
2022-12-05T07:09:59.697Z,2.28
2022-12-05T07:12:44.157Z,2.65
2022-12-05T07:15:26.994Z,2.70
2022-12-05T07:18:09.815Z,3.35
2022-12-05T07:21:14.357Z,3.10
2022-12-05T07:23:57.534Z,3.22
2022-12-05T07:26:40.499Z,2.72
2022-12-05T07:29:24.766Z,2.67
2022-12-05T07:32:08.370Z,2.78
2022-12-05T07:34:55.244Z,3.05
2022-12-05T07:37:38.577Z,2.75
2022-12-05T07:40:22.137Z,3.35
2022-12-05T07:43:04.964Z,2.72
2022-12-05T07:45:50.375Z,3.22
2022-12-05T07:48:33.550Z,4.78
2022-12-05T07:51:16.425Z,2.72
2022-12-05T07:54:01.463Z,2.78
2022-12-05T07:56:47.751Z,1.65
2022-12-05T07:59:31.016Z,1.90
2022-12-05T08:02:15.269Z,1.40
2022-12-05T08:04:58.414Z,1.50
2022-12-05T08:07:41.309Z,1.55
2022-12-05T08:10:24.216Z,1.95
2022-12-05T08:13:08.001Z,2.65
2022-12-05T08:15:51.211Z,3.53
2022-12-05T08:18:35.388Z,2.50
2022-12-05T08:21:20.160Z,3.10
2022-12-05T08:24:05.530Z,2.85
2022-12-05T08:26:48.400Z,3.10
2022-12-05T08:29:31.473Z,3.63
2022-12-05T08:32:14.367Z,2.65
2022-12-05T08:34:58.525Z,1.98
2022-12-05T08:37:41.364Z,2.92
2022-12-05T08:40:24.249Z,3.63
2022-12-05T08:43:07.061Z,3.38
2022-12-05T08:45:51.296Z,2.40
2022-12-05T08:48:35.166Z,2.40
2022-12-05T08:51:19.452Z,4.32
2022-12-05T08:54:03.586Z,2.42
2022-12-05T08:56:46.626Z,2.65
2022-12-05T08:59:29.723Z,1.90
2022-12-05T09:02:12.633Z,2.58
2022-12-05T09:04:57.359Z,2.10
2022-12-05T09:07:46.426Z,2.35
2022-12-05T09:13:14.150Z,1.60
2022-12-05T09:15:57.048Z,1.90
2022-12-05T09:18:40.683Z,1.85
2022-12-05T09:21:26.110Z,1.75
2022-12-05T09:24:11.695Z,1.90
2022-12-05T09:26:54.779Z,1.85
2022-12-05T09:29:37.695Z,1.88
2022-12-05T09:32:20.591Z,1.55
2022-12-05T09:35:03.838Z,5.93
2022-12-05T09:37:46.742Z,4.15
2022-12-05T09:40:42.841Z,2.60
2022-12-05T09:43:32.170Z,1.65
2022-12-05T09:46:22.340Z,6.65
2022-12-05T09:49:06.677Z,4.85
2022-12-05T09:51:55.209Z,2.20
2022-12-05T09:54:38.356Z,3.47
2022-12-05T09:57:35.254Z,2.28
2022-12-05T10:00:18.788Z,1.65
2022-12-05T10:03:20.279Z,2.30
2022-12-05T10:06:13.555Z,3.20
2022-12-05T10:09:08.788Z,2.30
2022-12-05T10:11:59.545Z,3.35
2022-12-05T10:14:54.219Z,4.50
2022-12-05T10:17:39.166Z,2.35
2022-12-05T10:20:27.158Z,2.60
2022-12-05T10:23:41.282Z,1.63
2022-12-05T10:26:20.906Z,1.70
2022-12-05T10:31:58.427Z,1.83
2022-12-05T10:34:43.292Z,1.30
2022-12-05T10:37:26.572Z,1.80
2022-12-05T10:40:13.652Z,4.90
2022-12-05T10:42:56.558Z,1.58
2022-12-05T10:45:44.068Z,1.50
2022-12-05T10:48:29.011Z,1.20
2022-12-05T10:51:15.878Z,1.10
2022-12-05T10:53:59.120Z,1.10
2022-12-05T10:56:45.005Z,1.35
2022-12-05T10:59:46.945Z,1.13
2022-12-05T11:02:33.349Z,1.30
2022-12-05T11:05:28.286Z,1.40
2022-12-05T11:08:35.655Z,1.13
2022-12-05T11:11:28.769Z,1.45
2022-12-05T11:14:24.130Z,1.20
2022-12-05T11:17:07.095Z,1.00
2022-12-05T11:19:50.074Z,1.73
2022-12-05T11:22:36.843Z,2.00
2022-12-05T11:25:26.516Z,2.05
2022-12-05T11:28:31.833Z,1.92
2022-12-05T11:31:28.942Z,1.25
2022-12-05T11:34:20.858Z,1.80
2022-12-05T11:37:11.960Z,2.75
2022-12-05T11:39:56.319Z,1.83
2022-12-05T11:42:52.182Z,1.40
2022-12-05T11:45:50.028Z,1.90
2022-12-05T11:48:55.610Z,1.08
2022-12-05T11:51:41.263Z,1.98
2022-12-05T11:58:11.499Z,1.23
2022-12-05T12:01:06.952Z,0.98
2022-12-05T12:04:32.688Z,1.42
2022-12-05T12:07:30.983Z,2.25
2022-12-05T12:10:24.533Z,1.42
2022-12-05T12:13:24.572Z,1.27
2022-12-05T12:16:15.603Z,1.45
2022-12-05T12:19:17.691Z,1.60
2022-12-05T12:22:15.910Z,1.50
2022-12-05T12:25:23.882Z,1.30
2022-12-05T12:28:24.070Z,1.30
2022-12-05T12:31:26.233Z,1.92
2022-12-05T12:34:40.744Z,2.72
2022-12-05T12:37:35.081Z,1.85
2022-12-05T12:40:23.074Z,2.22
2022-12-05T12:43:37.659Z,2.17
2022-12-05T12:46:34.949Z,1.70
2022-12-05T12:49:39.614Z,1.50
2022-12-05T12:52:25.545Z,2.40
2022-12-05T12:55:20.100Z,1.63
2022-12-05T12:58:11.653Z,1.75
2022-12-05T13:01:03.625Z,1.30
2022-12-05T13:03:53.909Z,1.30
2022-12-05T13:06:42.644Z,2.20
2022-12-05T13:09:31.465Z,5.88
2022-12-05T13:12:17.497Z,8.93
2022-12-05T13:15:03.845Z,8.90
2022-12-05T13:17:48.951Z,6.50
2022-12-05T13:20:36.670Z,3.75
2022-12-05T13:23:22.386Z,2.67
2022-12-05T13:26:10.734Z,1.83
2022-12-05T13:28:56.586Z,1.70
2022-12-05T13:31:41.255Z,1.48
2022-12-05T13:34:46.814Z,1.40
2022-12-05T13:37:50.228Z,1.33
2022-12-05T13:40:53.798Z,1.73
2022-12-05T13:43:48.580Z,1.63
2022-12-05T13:46:37.012Z,1.55
2022-12-05T13:49:31.145Z,1.42
2022-12-05T13:52:21.002Z,1.47
2022-12-05T13:55:21.883Z,1.40
2022-12-05T13:58:43.284Z,2.17
2022-12-05T14:01:55.381Z,2.30
2022-12-05T14:04:50.737Z,2.78
2022-12-05T14:07:43.238Z,2.83
2022-12-05T14:11:06.757Z,2.60
2022-12-05T14:13:50.221Z,1.95
2022-12-05T14:16:45.401Z,1.63
2022-12-05T14:19:57.327Z,1.60
2022-12-05T14:23:20.440Z,1.63
2022-12-05T14:26:14.530Z,1.33
2022-12-05T14:29:09.034Z,2.40
2022-12-05T14:32:05.579Z,3.20
2022-12-05T14:34:58.342Z,3.00
2022-12-05T14:37:49.693Z,2.70
2022-12-05T14:40:34.802Z,2.30
2022-12-05T14:43:22.359Z,1.80
2022-12-05T14:46:08.277Z,1.77
2022-12-05T14:48:52.143Z,2.22
2022-12-05T14:51:59.167Z,2.00
2022-12-05T14:54:42.304Z,1.50
2022-12-05T14:57:26.116Z,2.03
2022-12-05T15:00:19.425Z,2.13
2022-12-05T15:03:05.789Z,2.17
2022-12-05T15:05:49.484Z,2.50
2022-12-05T15:08:45.415Z,2.63
2022-12-05T15:11:31.426Z,6.93
2022-12-05T15:14:22.213Z,14.15
2022-12-05T15:17:07.085Z,12.60
2022-12-05T15:19:57.234Z,7.25
2022-12-05T15:22:40.674Z,5.25
2022-12-05T15:25:31.947Z,4.20
2022-12-05T15:28:20.629Z,3.80
2022-12-05T15:31:03.907Z,3.65
2022-12-05T15:33:52.596Z,4.65
2022-12-05T15:36:38.137Z,3.47
2022-12-05T15:39:26.424Z,2.95
2022-12-05T15:42:16.823Z,7.95
2022-12-05T15:45:20.026Z,18.60
2022-12-05T15:48:14.565Z,9.95
2022-12-05T15:51:00.457Z,6.20
2022-12-05T15:53:48.236Z,9.38
2022-12-05T15:56:36.975Z,5.68
2022-12-05T15:59:24.646Z,3.60
2022-12-05T16:02:16.159Z,3.40
2022-12-05T16:05:00.820Z,2.53
2022-12-05T16:10:29.762Z,1.80
2022-12-05T16:13:15.825Z,2.15
2022-12-05T16:16:00.142Z,9.38
2022-12-05T16:21:38.859Z,10.82
2022-12-05T16:24:27.955Z,13.10
2022-12-05T16:27:17.451Z,15.80
2022-12-05T16:30:20.039Z,9.13
2022-12-05T16:33:06.757Z,3.95
2022-12-05T16:35:50.647Z,3.45
2022-12-05T16:38:33.668Z,14.70
2022-12-05T16:41:17.721Z,9.77
2022-12-05T16:44:00.661Z,9.85
2022-12-05T16:46:46.065Z,8.00
2022-12-05T16:49:44.266Z,4.00
2022-12-05T16:52:32.002Z,5.53
2022-12-05T16:55:15.087Z,1.98
2022-12-05T16:57:58.787Z,1.85
2022-12-05T17:00:41.683Z,1.83
2022-12-05T17:03:40.316Z,2.10
2022-12-05T17:06:26.508Z,3.60
2022-12-05T17:09:09.492Z,3.28
2022-12-05T17:11:58.968Z,3.55
2022-12-05T17:14:42.115Z,3.40
2022-12-05T17:17:25.004Z,3.42
2022-12-05T17:20:08.762Z,2.78
2022-12-05T17:22:53.010Z,7.30
2022-12-05T17:25:39.294Z,7.50
2022-12-05T17:28:23.052Z,6.10
2022-12-05T17:31:06.611Z,5.23
2022-12-05T17:33:50.777Z,5.93
2022-12-05T17:36:33.624Z,6.00
2022-12-05T17:39:17.863Z,5.90
2022-12-05T17:42:00.758Z,5.50
2022-12-05T17:44:43.639Z,10.15
2022-12-05T17:47:26.498Z,6.47
2022-12-05T17:50:13.888Z,5.93
2022-12-05T17:53:04.265Z,12.07
2022-12-05T17:55:51.459Z,13.40
2022-12-05T17:58:34.448Z,7.63
2022-12-05T18:01:19.693Z,6.15
2022-12-05T18:04:03.366Z,3.00
2022-12-05T18:06:47.347Z,2.60
2022-12-05T18:09:31.036Z,2.90
2022-12-05T18:12:15.282Z,2.93
2022-12-05T18:14:58.280Z,4.28
2022-12-05T18:17:41.724Z,4.00
2022-12-05T18:20:24.588Z,3.47
2022-12-05T18:23:07.467Z,3.38
2022-12-05T18:25:58.480Z,4.13
2022-12-05T18:28:42.812Z,2.88
2022-12-05T18:34:09.082Z,2.50
2022-12-05T18:36:52.460Z,2.90
2022-12-05T18:39:35.959Z,3.13
2022-12-05T18:42:18.815Z,3.47
2022-12-05T18:45:03.279Z,3.97
2022-12-05T18:47:46.164Z,4.25
2022-12-05T18:50:29.264Z,2.83
2022-12-05T18:53:12.096Z,4.15
2022-12-05T18:58:59.337Z,3.90
2022-12-05T19:01:43.805Z,3.55
2022-12-05T19:04:27.202Z,3.25
2022-12-05T19:07:10.030Z,2.60
2022-12-05T19:09:55.318Z,2.10
2022-12-05T19:12:39.513Z,2.17
2022-12-05T19:15:22.386Z,2.45
2022-12-05T19:18:07.109Z,2.33
2022-12-05T19:20:51.825Z,2.45
2022-12-05T19:23:35.461Z,3.08
2022-12-05T19:26:18.590Z,2.60
2022-12-05T19:29:01.786Z,3.55
2022-12-05T19:31:45.383Z,4.72
2022-12-05T19:34:29.690Z,3.30
2022-12-05T19:37:12.513Z,3.38
2022-12-05T19:39:55.696Z,2.28
2022-12-05T19:42:38.617Z,2.20
2022-12-05T19:45:21.693Z,2.05
2022-12-05T19:48:05.096Z,4.93
2022-12-05T19:50:55.686Z,4.80
2022-12-05T19:53:41.840Z,4.53
2022-12-05T19:56:26.457Z,6.05
2022-12-05T19:59:09.353Z,6.28
2022-12-05T20:01:52.298Z,7.88
2022-12-05T20:04:35.627Z,7.40
2022-12-05T20:07:19.853Z,7.55
2022-12-05T20:10:02.767Z,5.93
2022-12-05T20:12:45.711Z,7.15
2022-12-05T20:15:29.450Z,4.88
2022-12-05T20:18:12.277Z,3.50
2022-12-05T20:20:58.133Z,3.40
2022-12-05T20:23:42.495Z,4.05
2022-12-05T20:26:27.453Z,3.30
2022-12-05T20:29:11.081Z,3.67
2022-12-05T20:31:56.771Z,2.92
2022-12-05T20:34:39.663Z,2.15
2022-12-05T20:37:22.538Z,2.50
2022-12-05T20:40:08.581Z,1.58
2022-12-05T20:42:51.502Z,11.43
2022-12-05T20:45:34.994Z,9.50
2022-12-05T20:48:17.841Z,6.88
2022-12-05T20:51:05.682Z,6.10
2022-12-05T20:53:48.699Z,4.88
2022-12-05T20:56:34.071Z,4.28
2022-12-05T20:59:17.010Z,3.90
2022-12-05T21:01:59.991Z,3.47
2022-12-05T21:04:43.001Z,3.00
2022-12-05T21:07:25.889Z,2.40
2022-12-05T21:10:09.646Z,5.03
2022-12-05T21:12:54.120Z,4.85
2022-12-05T21:15:37.267Z,6.25
2022-12-05T21:18:20.263Z,3.78
2022-12-05T21:21:06.653Z,3.00
2022-12-05T21:23:54.325Z,4.75
2022-12-05T21:26:37.394Z,5.88
2022-12-05T21:29:21.624Z,4.53
2022-12-05T21:32:04.628Z,5.38
2022-12-05T21:34:47.544Z,3.42
2022-12-05T21:37:30.536Z,3.28
2022-12-05T21:40:13.500Z,2.50
2022-12-05T21:42:56.508Z,1.98
2022-12-05T21:45:43.801Z,2.80
2022-12-05T21:48:28.953Z,4.97
2022-12-05T21:51:13.119Z,7.75
2022-12-05T21:53:56.018Z,3.60
2022-12-05T21:56:39.041Z,2.22
2022-12-05T21:59:21.854Z,2.15
2022-12-05T22:02:06.210Z,1.10
2022-12-05T22:04:49.202Z,0.70
2022-12-05T22:07:32.143Z,0.60
2022-12-05T22:10:15.074Z,1.48
2022-12-05T22:12:58.079Z,4.40
2022-12-05T22:15:40.979Z,4.60
2022-12-05T22:18:25.438Z,3.90
2022-12-05T22:21:11.552Z,5.97
2022-12-05T22:23:54.493Z,7.70
2022-12-05T22:26:37.386Z,5.72
2022-12-05T22:29:20.275Z,7.68
2022-12-05T22:32:03.131Z,5.00
2022-12-05T22:34:47.360Z,4.97
2022-12-05T22:37:31.586Z,7.25
2022-12-05T22:40:14.541Z,3.80
2022-12-05T22:42:57.449Z,3.90
2022-12-05T22:45:40.278Z,7.20
2022-12-05T22:48:23.966Z,13.75
2022-12-05T22:51:10.721Z,13.85
2022-12-05T22:53:54.768Z,10.68
2022-12-05T22:56:38.681Z,12.45
2022-12-05T22:59:21.513Z,8.40
2022-12-05T23:02:04.416Z,9.32
2022-12-05T23:04:47.482Z,9.43
2022-12-05T23:07:32.387Z,10.23
2022-12-05T23:10:15.560Z,7.45
2022-12-05T23:12:58.577Z,19.45
2022-12-05T23:15:41.555Z,14.27
2022-12-05T23:18:24.969Z,10.30
2022-12-05T23:21:07.944Z,6.50
2022-12-05T23:23:54.464Z,7.18
2022-12-05T23:26:40.271Z,6.25
2022-12-05T23:29:23.241Z,5.40
2022-12-05T23:32:06.554Z,5.40
2022-12-05T23:34:49.544Z,5.30
2022-12-05T23:37:32.549Z,9.30
2022-12-05T23:40:17.499Z,9.30
2022-12-05T23:43:00.515Z,5.93
2022-12-05T23:45:43.490Z,4.00
2022-12-05T23:48:26.814Z,2.63
2022-12-05T23:51:13.022Z,2.20
2022-12-05T23:53:58.158Z,1.38
2022-12-05T23:56:43.073Z,0.80
2022-12-05T23:59:26.076Z,0.40
